HIDDEN DAM (HENSLEY) (HID)

Elevation: 561' · FRESNO R basin · Operator: US Army Corps of Engineers

Provisional data, subject to change.
Query executed Friday at 6:01:08   clock

Select a sensor type for a plot of data.
Note: Reservoir Flows are daily averages.

Earlier

Date RES ELE    STORAGE    RES CHG    TOC STO    ABV TOC    OUTFLOW    INFLOW    PPT INC    TEMP MN    TEMP MX    WINDLEN    EVP PAN   
 FEET   AF   AF   AF   AF   CFS   CFS   INCHES   DEG F   DEG F   MILES   INCHES  
01/13/2016 461.81 9978 99 28750 -18772 0 51 0.00 6 17 110 0.08
01/14/2016 462.00 10064 86 29068 -19004 0 44 0.00 3 12 105 0.05
01/15/2016 462.22 10164 100 29186 -19022 0 52 0.17 8 16 10 0.07
01/16/2016 462.45 10269 105 29383 -19114 0 54 0.06 8 16 89 0.06
01/17/2016 462.65 10361 92 29716 -19355 0 47 0.00 7 16 120 0.06
01/18/2016 463.26 10645 284 29335 -18690 1 145 0.89 9 17 126 0.06
01/19/2016 464.33 11157 512 28811 -17654 3 262 0.65 9 14 138 0.03
01/20/2016 465.95 11961 804 29101 -17140 3 409 0.03 8 16 101 0.06
01/21/2016 466.73 12362 401 29181 -16819 1 204 0.00 8 18 106 0.08
01/22/2016 467.30 12660 298 29286 -16626 0 152 0.24 10 17 200 0.08
01/23/2016 468.25 0 508 29214 -16046 1 2 0.36 7 15 135 0.06
01/24/2016 469.24 13711 543 29566 -15855 1 276 0.00 4 13 93 0.06
01/25/2016 469.84 14048 337 29924 -15876 1 171 0.00 4 14 75 0.06
01/26/2016 470.30 14309 261 30214 -15905 0 133 0.00 6 18 92 0.08
01/27/2016 470.67 14521 14521 30598 -16077 0 108 0.00 7 15 94 0.06
01/28/2016 470.99 14707 186 30940 -16233 0 95 0.00 4 15 104 0.06
01/29/2016 471.28 14876 169 31347 -16471 0 87 0.00 9 16 86 0.06
01/30/2016 471.70 15124 248 30993 -15869 1 127 0.21 9 14 94 0.05
01/31/2016 473.17 16011 887 30322 -14299 3 451 0.87 5 10 217 0.03
02/01/2016 474.59 16900 889 30520 -13607 2 452 0.01 0 12 129 0.07
02/02/2016 475.32 17369 469 30800 -13419 1 238 0.00 2 11 174 0.07
02/03/2016 475.85 17714 345 31167 -13441 0 176 0.00 1 14 177 0.08
02/04/2016 476.31 18017 303 31557 -13540 0 154 0.00 4 14 104 0.08
02/05/2016 476.70 18277 260 31935 -13658 0 133 0.00 4 17 108 0.09
02/06/2016 477.04 18505 228 32346 -13841 0 117 0.00 4 17 106 0.09
02/07/2016 477.35 18715 210 32663 -13948 0 108 0.00 6 19 110 0.10
02/08/2016 477.64 18913 198 32977 -14064 0 102 0.00 7 23 112 0.13
02/09/2016 477.91 19098 185 33429 -14331 0 96 0.01 8 24 107 0.13
02/10/2016 478.17 19277 179 33912 -14635 0 93 0.00 8 21 112 0.12
02/11/2016 478.40 19437 160 34402 -14965 0 83 0.00 9 23 114 0.12
02/12/2016 -- -- -- -- -- -- -- -- -- -- -- --

Later | Latest

Warning! This data is preliminary and subject to revision.

Show HID Map | Plot HID Data | 1 Month HID Data | Real-Time HID Data | HID Info